Time;durP1;ratioP1;P1;durP2;ratioP2;P2;SDS_P1;SDS_P2;PMS_P1;PMS_P2;Temp;Humidity;BMP_temperature;BMP_pressure;BME280_temperature;BME280_humidity;BME280_pressure;Samples;Min_cycle;Max_cycle;Signal;HPM_P1;HPM_P2
2021/11/11 00:01:03;;;;;;;16.77;13.37;;;3.70;99.90;;;;;;5087195;28;20227;-51
2021/11/11 00:03:29;;;;;;;15.70;13.65;;;3.70;99.90;;;;;;5075297;28;20686;-51
2021/11/11 00:05:55;;;;;;;19.30;14.70;;;4.00;99.90;;;;;;5086762;28;20181;-51
2021/11/11 00:08:21;;;;;;;18.50;13.32;;;3.90;99.90;;;;;;5086088;28;20507;-51
2021/11/11 00:10:47;;;;;;;19.00;13.90;;;3.90;99.90;;;;;;5090202;28;20623;-50
2021/11/11 00:13:13;;;;;;;21.85;13.45;;;3.80;99.90;;;;;;5087650;28;20229;-51
2021/11/11 00:15:39;;;;;;;20.57;13.10;;;3.70;99.90;;;;;;5083146;28;20185;-51
2021/11/11 00:18:04;;;;;;;21.03;13.37;;;3.60;99.90;;;;;;5079001;28;20983;-50
2021/11/11 00:20:31;;;;;;;16.27;13.70;;;3.90;99.90;;;;;;5089509;28;20946;-51
2021/11/11 00:22:58;;;;;;;21.92;13.68;;;3.90;99.90;;;;;;5096982;28;20456;-51
2021/11/11 00:25:25;;;;;;;18.30;15.10;;;3.20;99.90;;;;;;5085104;28;20200;-50
2021/11/11 00:27:51;;;;;;;17.83;13.65;;;3.40;99.90;;;;;;5084059;28;20184;-50
2021/11/11 00:30:19;;;;;;;18.60;12.73;;;3.80;99.90;;;;;;5091035;28;20220;-51
2021/11/11 00:32:45;;;;;;;17.77;13.00;;;3.80;99.90;;;;;;5087574;28;20442;-51
2021/11/11 00:35:17;;;;;;;16.08;13.10;;;3.80;99.90;;;;;;5082502;28;20187;-50
2021/11/11 00:37:43;;;;;;;16.98;13.40;;;3.90;99.90;;;;;;5078127;28;20233;-51
2021/11/11 00:40:09;;;;;;;22.63;13.00;;;3.80;99.90;;;;;;5089606;28;20329;-51
2021/11/11 00:42:35;;;;;;;17.65;13.23;;;3.40;99.90;;;;;;5084198;28;20271;-51
2021/11/11 00:45:02;;;;;;;16.30;14.07;;;3.30;99.90;;;;;;5086159;28;20311;-52
2021/11/11 00:47:28;;;;;;;17.83;13.43;;;3.40;99.90;;;;;;5086484;28;20184;-49
2021/11/11 00:49:54;;;;;;;17.30;13.30;;;3.20;99.90;;;;;;5092430;28;20214;-50
2021/11/11 00:52:19;;;;;;;16.70;13.33;;;3.30;99.90;;;;;;5083004;28;20264;-50
2021/11/11 00:54:45;;;;;;;16.93;13.80;;;3.30;99.90;;;;;;5093292;28;20613;-50
2021/11/11 00:57:11;;;;;;;20.13;13.30;;;3.40;99.90;;;;;;5090831;28;20939;-50
2021/11/11 00:59:38;;;;;;;17.57;13.60;;;3.40;99.90;;;;;;5076620;28;20900;-50
2021/11/11 01:02:08;;;;;;;20.02;13.35;;;3.30;99.90;;;;;;5085896;28;20184;-50
2021/11/11 01:04:34;;;;;;;17.50;13.98;;;3.40;99.90;;;;;;5084576;28;20192;-50
2021/11/11 01:07:00;;;;;;;16.23;12.52;;;2.80;99.90;;;;;;5088303;28;20188;-50
2021/11/11 01:09:25;;;;;;;15.17;13.00;;;3.00;99.90;;;;;;5068876;28;20362;-50
2021/11/11 01:11:51;;;;;;;21.57;16.17;;;3.30;99.90;;;;;;5081418;28;20227;-50
2021/11/11 01:14:17;;;;;;;19.30;15.05;;;3.30;99.90;;;;;;5084963;28;20555;-50
2021/11/11 01:16:44;;;;;;;23.00;13.30;;;3.30;99.90;;;;;;5091509;28;20246;-50
2021/11/11 01:19:10;;;;;;;18.63;13.57;;;3.50;99.90;;;;;;5082502;28;20181;-50
2021/11/11 01:21:36;;;;;;;16.67;12.95;;;3.30;99.90;;;;;;5081236;28;20220;-50
2021/11/11 01:24:03;;;;;;;19.40;13.60;;;3.60;99.90;;;;;;5080043;28;20654;-50
2021/11/11 01:26:28;;;;;;;19.65;14.32;;;3.30;99.90;;;;;;5076570;28;20204;-50
2021/11/11 01:28:55;;;;;;;16.90;14.20;;;3.50;99.90;;;;;;5083843;28;20185;-50
2021/11/11 01:31:21;;;;;;;16.77;13.65;;;3.60;99.90;;;;;;5083822;28;20192;-50
2021/11/11 01:33:46;;;;;;;17.30;12.77;;;3.30;99.90;;;;;;5086271;28;20229;-50
2021/11/11 01:36:12;;;;;;;18.60;13.17;;;3.50;99.90;;;;;;5090621;28;20253;-50
2021/11/11 01:38:38;;;;;;;16.83;12.77;;;3.70;99.90;;;;;;5076527;28;20429;-50
2021/11/11 01:41:05;;;;;;;16.50;13.80;;;3.50;99.90;;;;;;5090118;28;20649;-50
2021/11/11 01:43:31;;;;;;;19.30;14.50;;;3.40;99.90;;;;;;5076013;28;20566;-50
2021/11/11 01:45:58;;;;;;;20.27;14.32;;;3.30;99.90;;;;;;5092125;28;20188;-50
2021/11/11 01:48:26;;;;;;;18.13;14.50;;;3.50;99.90;;;;;;5090340;28;20570;-50
2021/11/11 01:50:52;;;;;;;19.40;14.23;;;3.30;99.90;;;;;;5086289;28;20212;-50
2021/11/11 01:53:18;;;;;;;17.98;13.20;;;3.20;99.90;;;;;;5086527;28;20254;-50
2021/11/11 01:55:46;;;;;;;20.73;14.63;;;2.80;99.90;;;;;;5085713;28;20223;-50
2021/11/11 01:58:13;;;;;;;19.02;14.35;;;3.20;99.90;;;;;;5078954;28;20172;-51
2021/11/11 02:00:54;;;;;;;20.08;13.65;;;3.30;99.90;;;;;;5086921;28;20220;-50
2021/11/11 02:03:21;;;;;;;20.90;14.88;;;3.20;99.90;;;;;;5072591;28;20266;-50
2021/11/11 02:05:48;;;;;;;19.13;14.90;;;3.00;99.90;;;;;;5088221;28;20227;-50
2021/11/11 02:08:14;;;;;;;21.77;14.40;;;3.00;99.90;;;;;;5088810;28;20185;-50
2021/11/11 02:10:41;;;;;;;20.75;14.60;;;3.20;99.90;;;;;;5086318;28;20211;-51
2021/11/11 02:13:08;;;;;;;19.70;14.30;;;3.10;99.90;;;;;;5090213;28;20191;-50
2021/11/11 02:15:35;;;;;;;18.73;13.98;;;3.00;99.90;;;;;;5068935;28;20560;-50
2021/11/11 02:18:01;;;;;;;17.52;13.85;;;3.00;99.90;;;;;;5083790;28;20454;-50
2021/11/11 02:20:29;;;;;;;20.80;15.10;;;3.30;99.90;;;;;;5075300;28;20204;-50
2021/11/11 02:22:57;;;;;;;23.15;14.02;;;3.30;99.90;;;;;;5091522;28;20192;-50
2021/11/11 02:25:25;;;;;;;17.80;13.63;;;3.10;99.90;;;;;;5076089;28;20207;-50
2021/11/11 02:27:54;;;;;;;20.90;12.73;;;3.20;99.90;;;;;;5090723;28;20193;-51
2021/11/11 02:30:22;;;;;;;19.30;13.70;;;3.30;99.90;;;;;;5088203;28;20220;-50
2021/11/11 02:32:48;;;;;;;16.27;13.25;;;3.10;99.90;;;;;;5085562;28;20184;-50
2021/11/11 02:35:15;;;;;;;17.83;14.90;;;3.00;99.90;;;;;;5085593;28;20173;-50
2021/11/11 02:37:42;;;;;;;18.95;14.57;;;3.10;99.90;;;;;;5089844;28;20441;-50
2021/11/11 02:40:10;;;;;;;19.10;13.95;;;3.20;99.90;;;;;;5081155;28;20216;-51
2021/11/11 02:42:37;;;;;;;22.50;14.40;;;3.00;99.90;;;;;;5089394;28;20234;-50
2021/11/11 02:45:06;;;;;;;21.50;14.18;;;3.00;99.90;;;;;;5080564;28;20188;-51
2021/11/11 02:47:33;;;;;;;16.70;13.20;;;3.20;99.90;;;;;;5079082;28;20289;-50
2021/11/11 02:49:59;;;;;;;19.95;15.23;;;2.80;99.90;;;;;;5076632;28;20243;-51
2021/11/11 02:52:26;;;;;;;20.37;15.63;;;3.10;99.90;;;;;;5088090;28;20271;-50
2021/11/11 02:54:52;;;;;;;17.60;15.15;;;2.70;99.90;;;;;;5091124;28;20602;-51
2021/11/11 02:57:21;;;;;;;17.73;13.52;;;2.60;99.90;;;;;;5084832;28;20172;-50
2021/11/11 02:59:47;;;;;;;19.83;14.73;;;3.10;99.90;;;;;;5079410;28;20293;-51
2021/11/11 03:02:40;;;;;;;25.27;15.60;;;2.60;99.90;;;;;;5070324;28;20266;-51
2021/11/11 03:05:08;;;;;;;21.73;16.08;;;3.10;99.90;;;;;;5079755;28;20774;-50
2021/11/11 03:07:35;;;;;;;19.83;15.80;;;3.20;99.90;;;;;;5083461;28;20262;-51
2021/11/11 03:10:00;;;;;;;22.80;16.20;;;2.90;99.90;;;;;;5089332;28;20277;-51
2021/11/11 03:12:26;;;;;;;20.33;14.87;;;3.30;99.90;;;;;;5075787;28;20196;-51
2021/11/11 03:14:53;;;;;;;22.37;14.77;;;3.50;99.90;;;;;;5081826;28;20946;-51
2021/11/11 03:17:19;;;;;;;18.80;15.20;;;3.30;99.90;;;;;;5084235;28;20438;-51
2021/11/11 03:19:46;;;;;;;21.00;15.13;;;3.20;99.90;;;;;;5083246;28;20565;-51
2021/11/11 03:22:23;;;;;;;21.83;15.25;;;3.00;99.90;;;;;;5085548;28;20518;-51
2021/11/11 03:24:52;;;;;;;18.92;15.20;;;2.80;99.90;;;;;;5088792;28;20172;-50
2021/11/11 03:27:19;;;;;;;18.58;14.40;;;3.60;99.90;;;;;;5079041;28;20553;-50
2021/11/11 03:29:47;;;;;;;18.15;14.75;;;3.60;99.90;;;;;;5086811;28;20685;-51
2021/11/11 03:32:13;;;;;;;20.60;15.15;;;3.30;99.90;;;;;;5081534;28;20184;-51
2021/11/11 03:34:40;;;;;;;19.58;14.77;;;3.30;99.90;;;;;;5079311;28;20538;-51
2021/11/11 03:37:07;;;;;;;18.67;15.13;;;3.70;99.90;;;;;;5079480;28;20269;-51
2021/11/11 03:39:33;;;;;;;21.40;14.68;;;3.40;99.90;;;;;;5082867;28;20204;-51
2021/11/11 03:41:59;;;;;;;22.75;14.95;;;3.60;99.90;;;;;;5074702;28;20658;-51
2021/11/11 03:44:25;;;;;;;21.90;15.15;;;3.50;99.90;;;;;;5086505;28;20200;-51
2021/11/11 03:46:55;;;;;;;23.57;16.30;;;3.50;99.90;;;;;;5081764;28;20198;-51
2021/11/11 03:49:21;;;;;;;19.85;14.85;;;3.40;99.90;;;;;;5080738;28;20207;-51
2021/11/11 03:51:47;;;;;;;16.90;14.02;;;3.40;99.90;;;;;;5088071;28;20180;-51
2021/11/11 03:54:14;;;;;;;19.03;14.40;;;3.50;99.90;;;;;;5081670;28;20711;-50
2021/11/11 03:56:42;;;;;;;21.17;16.38;;;3.50;99.90;;;;;;5079185;28;20924;-50
2021/11/11 03:59:09;;;;;;;21.88;15.60;;;3.60;99.90;;;;;;5077860;28;20658;-50
2021/11/11 04:01:35;;;;;;;22.10;16.77;;;3.30;99.90;;;;;;5089149;28;20275;-51
2021/11/11 04:04:03;;;;;;;20.77;16.63;;;3.00;99.90;;;;;;5078456;28;20188;-51
2021/11/11 04:06:30;;;;;;;19.60;15.48;;;3.30;99.90;;;;;;5081438;28;20180;-51
2021/11/11 04:08:56;;;;;;;18.77;14.95;;;3.40;99.90;;;;;;5079302;28;20181;-51
2021/11/11 04:11:22;;;;;;;23.60;16.52;;;3.40;99.90;;;;;;5086694;28;20209;-51
2021/11/11 04:13:48;;;;;;;24.90;16.30;;;3.60;99.90;;;;;;5081156;28;20245;-50
2021/11/11 04:16:14;;;;;;;18.40;14.87;;;3.60;99.90;;;;;;5084369;28;20188;-50
2021/11/11 04:18:40;;;;;;;19.13;15.00;;;3.70;99.90;;;;;;5079337;28;20722;-50
2021/11/11 04:21:06;;;;;;;18.30;15.10;;;2.90;99.90;;;;;;5079009;28;20213;-50
2021/11/11 04:23:32;;;;;;;19.17;14.98;;;3.70;99.90;;;;;;5086337;28;20442;-50
2021/11/11 04:28:30;;;;;;;21.92;15.00;;;3.70;99.90;;;;;;5084523;28;20177;-50
2021/11/11 04:30:59;;;;;;;15.63;13.90;;;3.30;99.90;;;;;;5086472;28;20294;-50
2021/11/11 04:33:26;;;;;;;20.00;15.57;;;3.30;99.90;;;;;;5081759;28;20279;-51
2021/11/11 04:35:57;;;;;;;17.98;14.80;;;3.50;99.90;;;;;;5089458;28;20280;-51
2021/11/11 04:44:11;;;;;;;17.85;14.20;;;3.40;99.90;;;;;;5071317;28;20189;-51
2021/11/11 04:49:49;;;;;;;20.08;13.90;;;3.20;99.90;;;;;;5080549;28;20180;-50
2021/11/11 05:03:22;;;;;;;20.45;14.40;;;3.50;99.90;;;;;;5081479;28;20744;-50
2021/11/11 05:05:48;;;;;;;21.02;14.50;;;3.30;99.90;;;;;;5080282;28;20222;-50
2021/11/11 05:08:13;;;;;;;21.10;15.40;;;3.10;99.90;;;;;;5087402;28;20196;-49
2021/11/11 05:10:40;;;;;;;25.37;18.20;;;3.30;99.90;;;;;;5084022;28;20239;-50
2021/11/11 05:13:05;;;;;;;19.48;16.25;;;3.40;99.90;;;;;;5094552;28;20438;-50
2021/11/11 05:15:31;;;;;;;23.63;15.93;;;3.60;99.90;;;;;;5091056;28;20196;-49
2021/11/11 05:17:57;;;;;;;23.23;15.47;;;3.40;99.90;;;;;;5086740;28;20525;-49
2021/11/11 05:20:23;;;;;;;18.52;15.57;;;3.40;99.90;;;;;;5092212;28;20204;-49
2021/11/11 05:22:49;;;;;;;19.77;15.60;;;2.90;99.90;;;;;;5074834;28;20192;-50
2021/11/11 05:25:16;;;;;;;19.05;16.25;;;3.20;99.90;;;;;;5092212;28;20652;-49
2021/11/11 05:27:44;;;;;;;22.00;15.75;;;3.20;99.90;;;;;;5078070;28;20181;-50
2021/11/11 05:30:11;;;;;;;20.42;15.38;;;3.40;99.90;;;;;;5083758;28;20208;-51
2021/11/11 05:32:38;;;;;;;23.52;16.35;;;3.20;99.90;;;;;;5082882;28;20185;-51
2021/11/11 05:35:06;;;;;;;19.48;15.77;;;3.10;99.90;;;;;;5091498;28;20176;-51
2021/11/11 05:37:32;;;;;;;17.65;14.55;;;3.10;99.90;;;;;;5073926;28;20235;-50
2021/11/11 05:39:58;;;;;;;22.38;15.05;;;3.20;99.90;;;;;;5077921;28;20209;-50
2021/11/11 05:42:24;;;;;;;22.70;16.37;;;3.20;99.90;;;;;;5073062;28;20199;-50
2021/11/11 05:44:50;;;;;;;23.00;15.20;;;3.10;99.90;;;;;;5091656;28;20442;-50
2021/11/11 05:47:16;;;;;;;20.27;15.40;;;3.00;99.90;;;;;;5079350;28;20453;-50
2021/11/11 05:49:42;;;;;;;21.27;15.68;;;3.40;99.90;;;;;;5070644;28;20220;-50
2021/11/11 05:52:07;;;;;;;21.30;16.65;;;3.30;99.90;;;;;;5091890;28;20250;-50
2021/11/11 05:54:37;;;;;;;20.13;15.93;;;3.20;99.90;;;;;;5083254;28;20710;-50
2021/11/11 05:57:03;;;;;;;20.25;15.13;;;3.30;99.90;;;;;;5080590;28;20181;-50
2021/11/11 05:59:29;;;;;;;19.02;15.48;;;3.30;99.90;;;;;;5087639;28;20192;-50
2021/11/11 06:01:55;;;;;;;21.50;14.77;;;3.50;99.90;;;;;;5082034;28;20210;-50
2021/11/11 06:04:21;;;;;;;21.63;16.00;;;2.50;99.90;;;;;;5079222;28;20442;-50
2021/11/11 06:06:46;;;;;;;21.13;15.97;;;3.00;99.90;;;;;;5086540;28;20439;-51
2021/11/11 06:09:12;;;;;;;22.83;15.33;;;3.30;99.90;;;;;;5084952;28;20271;-50
2021/11/11 06:11:38;;;;;;;19.50;15.13;;;3.50;99.90;;;;;;5080069;28;20443;-50
2021/11/11 06:14:04;;;;;;;20.80;16.50;;;3.50;99.90;;;;;;5090647;28;20180;-50
2021/11/11 06:16:29;;;;;;;22.30;15.80;;;3.40;99.90;;;;;;5089706;28;22203;-48
2021/11/11 06:18:55;;;;;;;20.00;15.20;;;3.60;99.90;;;;;;5085196;28;20556;-48
2021/11/11 06:21:24;;;;;;;18.67;15.07;;;3.50;99.90;;;;;;5077163;28;20201;-50
2021/11/11 06:23:52;;;;;;;22.90;17.38;;;3.40;99.90;;;;;;5085952;28;20201;-49
2021/11/11 06:26:24;;;;;;;25.08;17.38;;;2.80;99.90;;;;;;5076708;28;20189;-49
2021/11/11 06:28:51;;;;;;;19.92;15.57;;;3.20;99.90;;;;;;5083566;28;20660;-50
2021/11/11 06:31:17;;;;;;;21.42;16.73;;;3.70;99.90;;;;;;5062885;28;20239;-49
2021/11/11 06:33:43;;;;;;;22.15;17.35;;;3.60;99.90;;;;;;5074751;28;20591;-49
2021/11/11 06:36:10;;;;;;;27.05;17.35;;;3.50;99.90;;;;;;5087042;28;20567;-51
2021/11/11 06:38:35;;;;;;;21.30;16.17;;;3.20;99.90;;;;;;5084201;28;20177;-51
2021/11/11 06:41:01;;;;;;;26.10;16.30;;;3.10;99.90;;;;;;5085991;28;20206;-51
2021/11/11 06:43:27;;;;;;;23.23;16.33;;;3.10;99.90;;;;;;5088898;28;20227;-50
2021/11/11 06:45:53;;;;;;;22.88;17.13;;;3.30;99.90;;;;;;5088912;28;20215;-50
2021/11/11 06:48:19;;;;;;;21.00;16.35;;;3.40;99.90;;;;;;5085602;28;20717;-49
2021/11/11 06:50:46;;;;;;;20.10;16.17;;;3.40;99.90;;;;;;5074693;28;20598;-49
2021/11/11 06:53:15;;;;;;;20.52;16.50;;;2.60;99.90;;;;;;5087383;28;20641;-49
2021/11/11 06:55:42;;;;;;;26.70;16.48;;;2.70;99.90;;;;;;5079888;28;20600;-49
2021/11/11 06:58:09;;;;;;;27.67;17.20;;;3.30;99.90;;;;;;5080782;28;20183;-50
2021/11/11 07:00:35;;;;;;;32.85;20.42;;;3.20;99.90;;;;;;5085102;28;20215;-51
2021/11/11 07:03:00;;;;;;;28.27;18.30;;;3.20;99.90;;;;;;5082640;28;20267;-54
2021/11/11 07:05:26;;;;;;;27.63;18.07;;;3.20;99.90;;;;;;5087221;28;20617;-54
2021/11/11 07:07:52;;;;;;;24.30;16.67;;;3.20;99.90;;;;;;5082247;28;20653;-54
2021/11/11 07:10:18;;;;;;;25.10;17.60;;;3.50;99.90;;;;;;5084043;28;20994;-55
2021/11/11 07:12:44;;;;;;;23.35;17.50;;;3.60;99.90;;;;;;5078425;28;20184;-54
2021/11/11 07:15:12;;;;;;;24.00;15.40;;;3.60;99.90;;;;;;5079821;28;20637;-54
2021/11/11 07:17:39;;;;;;;19.02;14.82;;;3.60;99.90;;;;;;5079635;28;20322;-54
2021/11/11 07:20:13;;;;;;;21.27;17.42;;;3.60;99.90;;;;;;5074267;28;20196;-51
2021/11/11 07:22:40;;;;;;;21.15;15.80;;;4.50;99.90;;;;;;5089834;28;20244;-50
2021/11/11 07:25:06;;;;;;;22.30;15.55;;;4.50;99.90;;;;;;5074820;28;20185;-50
2021/11/11 07:27:33;;;;;;;27.23;16.27;;;4.10;99.90;;;;;;5073283;28;20276;-51
2021/11/11 07:30:00;;;;;;;22.10;15.95;;;4.70;99.90;;;;;;5082066;28;20219;-50
2021/11/11 07:32:26;;;;;;;22.23;14.95;;;4.40;99.90;;;;;;5089628;28;20183;-51
2021/11/11 07:34:51;;;;;;;29.73;16.33;;;4.20;99.90;;;;;;5081689;28;20177;-50
2021/11/11 07:37:17;;;;;;;31.97;17.80;;;4.40;99.90;;;;;;5078696;28;20200;-50
2021/11/11 07:39:43;;;;;;;42.87;19.60;;;4.20;99.90;;;;;;5067847;28;20212;-50
2021/11/11 07:42:10;;;;;;;24.15;17.90;;;4.30;99.90;;;;;;5083559;28;20295;-50
2021/11/11 07:44:35;;;;;;;37.13;22.35;;;4.70;99.90;;;;;;5086341;28;20295;-50
2021/11/11 07:47:01;;;;;;;26.50;20.37;;;4.40;99.90;;;;;;5081227;28;20346;-50
2021/11/11 07:49:27;;;;;;;25.10;17.77;;;4.30;99.90;;;;;;5079782;28;20227;-51
2021/11/11 07:51:53;;;;;;;25.25;19.48;;;4.60;99.90;;;;;;5079413;28;20533;-50
2021/11/11 07:54:19;;;;;;;24.50;18.57;;;4.60;99.90;;;;;;5077926;28;20753;-50
2021/11/11 07:56:45;;;;;;;22.55;19.13;;;4.40;99.90;;;;;;5080485;28;20185;-51
2021/11/11 07:59:12;;;;;;;25.43;18.00;;;4.70;99.90;;;;;;5087166;28;20539;-52
2021/11/11 08:01:38;;;;;;;25.25;18.60;;;4.70;99.90;;;;;;5076449;28;20193;-48
2021/11/11 08:04:04;;;;;;;24.40;18.87;;;4.90;99.90;;;;;;5075442;28;20188;-49
2021/11/11 08:06:30;;;;;;;21.80;17.30;;;5.00;99.90;;;;;;5082099;28;20215;-48
2021/11/11 08:08:55;;;;;;;26.47;16.80;;;4.80;99.90;;;;;;5076413;28;20220;-50
2021/11/11 08:11:22;;;;;;;29.20;18.17;;;5.00;99.90;;;;;;5087728;28;20229;-50
2021/11/11 08:13:51;;;;;;;24.00;17.95;;;4.90;99.90;;;;;;5074798;28;20187;-50
2021/11/11 08:16:17;;;;;;;21.48;17.77;;;4.90;99.90;;;;;;5077371;28;20743;-48
2021/11/11 08:18:43;;;;;;;25.27;18.80;;;4.70;99.90;;;;;;5076928;28;20205;-49
2021/11/11 08:21:08;;;;;;;24.17;19.57;;;4.30;99.90;;;;;;5077283;28;20620;-49
2021/11/11 08:23:35;;;;;;;23.67;18.70;;;5.10;99.90;;;;;;5079623;28;20277;-49
2021/11/11 08:26:04;;;;;;;21.85;17.85;;;5.10;99.90;;;;;;5073519;28;20188;-50
2021/11/11 08:28:30;;;;;;;44.25;32.45;;;5.20;99.90;;;;;;5094271;28;20208;-48
2021/11/11 08:30:56;;;;;;;23.20;18.87;;;5.30;99.90;;;;;;5097455;28;20726;-49
2021/11/11 08:33:22;;;;;;;25.75;18.42;;;5.70;99.90;;;;;;5096212;28;20432;-49
2021/11/11 08:35:49;;;;;;;19.83;17.70;;;5.30;99.90;;;;;;5089413;28;20233;-48
2021/11/11 08:38:15;;;;;;;20.63;18.00;;;5.40;99.90;;;;;;5105427;28;20211;-48
2021/11/11 08:40:41;;;;;;;24.57;18.37;;;5.70;99.90;;;;;;5094290;28;20207;-48
2021/11/11 08:43:07;;;;;;;24.92;18.00;;;5.60;99.90;;;;;;5084896;28;20941;-49
2021/11/11 08:45:34;;;;;;;24.83;18.10;;;5.50;99.90;;;;;;5092331;28;20196;-49
2021/11/11 08:48:03;;;;;;;22.45;17.65;;;5.80;99.90;;;;;;5094051;28;20188;-50
2021/11/11 08:50:30;;;;;;;21.95;17.15;;;5.90;99.90;;;;;;5093861;28;20284;-49
2021/11/11 08:52:59;;;;;;;22.30;17.10;;;6.30;99.90;;;;;;5092643;28;20217;-49
2021/11/11 08:55:27;;;;;;;22.23;16.33;;;6.80;99.90;;;;;;5095393;28;20180;-49
2021/11/11 08:57:54;;;;;;;21.08;17.30;;;6.80;99.90;;;;;;5080749;28;20263;-49
2021/11/11 09:00:24;;;;;;;21.90;18.35;;;7.10;99.90;;;;;;5093072;28;20275;-49
2021/11/11 09:02:52;;;;;;;19.13;17.05;;;7.00;99.90;;;;;;5086252;28;20192;-48
2021/11/11 09:05:18;;;;;;;27.90;16.63;;;8.00;99.90;;;;;;5102204;28;20184;-48
2021/11/11 09:07:45;;;;;;;23.92;16.65;;;8.90;99.90;;;;;;5084589;28;20189;-48
2021/11/11 09:10:13;;;;;;;20.52;16.33;;;8.80;99.90;;;;;;5085221;28;20213;-49
2021/11/11 09:12:39;;;;;;;19.90;16.30;;;9.60;99.90;;;;;;5088710;28;20181;-48
2021/11/11 09:15:09;;;;;;;17.13;15.15;;;10.10;98.80;;;;;;5084759;28;20176;-48
2021/11/11 09:17:35;;;;;;;20.55;16.98;;;10.00;98.20;;;;;;5082499;28;20181;-49
2021/11/11 09:20:02;;;;;;;19.23;17.15;;;9.90;98.60;;;;;;5102268;28;20813;-49
2021/11/11 09:22:31;;;;;;;20.40;16.25;;;9.50;98.90;;;;;;5090289;28;20204;-48
2021/11/11 09:24:58;;;;;;;20.38;15.73;;;9.30;99.50;;;;;;5091408;28;20227;-48
2021/11/11 09:27:24;;;;;;;22.48;16.35;;;9.80;99.60;;;;;;5085310;28;20208;-49
2021/11/11 09:29:49;;;;;;;20.70;16.50;;;10.00;98.30;;;;;;5089431;28;20247;-47
2021/11/11 09:32:16;;;;;;;20.90;16.50;;;10.30;98.90;;;;;;5089441;28;20186;-48
2021/11/11 09:34:41;;;;;;;22.52;15.70;;;10.80;97.60;;;;;;5084842;28;20432;-49
2021/11/11 09:37:07;;;;;;;18.63;16.60;;;11.30;95.90;;;;;;5064797;28;20195;-49
2021/11/11 09:39:33;;;;;;;16.80;15.10;;;11.70;95.20;;;;;;5090633;28;20279;-49
2021/11/11 09:42:00;;;;;;;23.97;14.60;;;12.20;94.70;;;;;;5084599;28;20638;-49
2021/11/11 09:44:26;;;;;;;18.83;14.77;;;11.90;96.50;;;;;;5092587;28;20276;-49
2021/11/11 09:46:53;;;;;;;19.13;16.30;;;11.40;96.90;;;;;;5095683;28;20279;-49
2021/11/11 09:49:21;;;;;;;19.40;15.82;;;11.00;96.70;;;;;;5096507;28;20884;-49
2021/11/11 09:51:48;;;;;;;21.23;16.35;;;10.80;96.70;;;;;;5088529;28;20181;-49
2021/11/11 09:59:29;;;;;;;16.60;14.90;;;10.30;98.60;;;;;;5092508;28;20598;-50
2021/11/11 10:01:58;;;;;;;18.40;16.25;;;9.90;99.70;;;;;;5091110;28;20187;-50
2021/11/11 10:04:24;;;;;;;17.70;15.80;;;9.60;99.80;;;;;;5069033;28;20198;-50
2021/11/11 10:06:50;;;;;;;19.33;16.58;;;9.70;99.90;;;;;;5092274;28;20188;-50
2021/11/11 10:09:19;;;;;;;18.43;16.33;;;10.20;99.20;;;;;;5087876;28;20259;-50
2021/11/11 10:11:51;;;;;;;17.73;15.00;;;10.60;98.80;;;;;;5090573;28;20706;-50
2021/11/11 10:14:20;;;;;;;18.35;14.73;;;10.30;98.30;;;;;;5085776;28;20181;-49
2021/11/11 10:16:47;;;;;;;18.08;16.10;;;10.30;97.90;;;;;;5090086;28;20180;-50
2021/11/11 10:19:15;;;;;;;17.30;15.07;;;10.60;98.10;;;;;;5085180;28;20177;-50
2021/11/11 10:21:45;;;;;;;22.33;15.90;;;10.40;98.00;;;;;;5080408;28;20209;-49
2021/11/11 10:24:28;;;;;;;22.75;16.83;;;10.40;98.00;;;;;;5092202;28;20177;-50
2021/11/11 10:27:07;;;;;;;20.33;16.67;;;10.50;98.20;;;;;;5083179;28;20249;-51
2021/11/11 10:30:04;;;;;;;18.27;16.35;;;10.70;99.20;;;;;;5073914;28;20212;-52
2021/11/11 10:32:39;;;;;;;16.95;15.13;;;11.40;97.10;;;;;;5076595;28;20664;-49
2021/11/11 10:35:20;;;;;;;19.02;16.05;;;12.70;94.50;;;;;;5089852;28;20210;-49
2021/11/11 10:37:58;;;;;;;17.75;14.95;;;12.70;93.30;;;;;;5084064;28;20183;-50
2021/11/11 10:40:34;;;;;;;16.65;14.80;;;13.00;93.30;;;;;;5086152;28;20579;-49
2021/11/11 10:43:12;;;;;;;22.48;16.75;;;13.90;92.00;;;;;;5087338;28;20192;-50
2021/11/11 10:45:41;;;;;;;17.50;15.70;;;13.60;90.80;;;;;;5083640;28;20184;-50
2021/11/11 10:48:11;;;;;;;22.15;17.50;;;14.00;91.20;;;;;;5083387;28;20274;-50
2021/11/11 10:50:43;;;;;;;19.73;16.00;;;13.20;92.00;;;;;;5077386;28;20215;-48
2021/11/11 10:53:11;;;;;;;18.17;16.27;;;13.30;91.90;;;;;;5077739;28;20192;-49
2021/11/11 10:55:42;;;;;;;19.95;16.20;;;12.90;92.00;;;;;;5074506;28;20707;-49
2021/11/11 10:58:17;;;;;;;18.85;16.13;;;12.30;92.80;;;;;;5061118;28;20278;-49
2021/11/11 11:00:48;;;;;;;17.63;15.70;;;12.20;93.20;;;;;;5063693;28;20210;-50
2021/11/11 11:03:32;;;;;;;27.05;20.08;;;12.00;93.80;;;;;;5083956;28;20692;-48
2021/11/11 11:06:00;;;;;;;20.98;16.63;;;12.60;94.00;;;;;;5092994;28;20234;-48
2021/11/11 11:08:26;;;;;;;22.08;17.15;;;13.00;93.20;;;;;;5076545;28;20195;-48
2021/11/11 11:11:05;;;;;;;18.70;16.47;;;13.10;92.50;;;;;;5086336;28;20592;-48
2021/11/11 11:13:39;;;;;;;18.70;16.40;;;13.00;93.00;;;;;;5095745;28;20187;-48
2021/11/11 11:16:07;;;;;;;21.33;18.15;;;13.00;92.60;;;;;;5076498;28;20617;-50
2021/11/11 11:18:42;;;;;;;18.38;15.32;;;13.20;92.10;;;;;;5060619;28;20188;-50
2021/11/11 11:21:14;;;;;;;21.55;16.08;;;13.30;92.00;;;;;;5078767;28;20212;-49
2021/11/11 11:23:45;;;;;;;19.48;17.35;;;13.20;92.40;;;;;;5083777;28;20193;-50
2021/11/11 11:26:18;;;;;;;20.95;17.48;;;13.10;92.50;;;;;;5081935;28;20550;-50
2021/11/11 11:29:20;;;;;;;20.58;17.80;;;12.70;92.90;;;;;;5086955;28;20198;-50
2021/11/11 11:31:53;;;;;;;18.65;16.75;;;11.70;94.50;;;;;;5081248;28;20179;-49
2021/11/11 11:34:21;;;;;;;20.73;16.83;;;12.10;95.00;;;;;;5077765;28;20179;-50
2021/11/11 11:36:56;;;;;;;22.45;18.17;;;11.70;95.30;;;;;;5080082;28;20179;-49
2021/11/11 11:39:28;;;;;;;19.73;16.58;;;11.70;95.60;;;;;;5082684;28;20179;-48
2021/11/11 11:41:55;;;;;;;20.95;17.20;;;11.30;95.90;;;;;;5089779;28;20181;-50
2021/11/11 11:44:33;;;;;;;21.90;17.95;;;11.20;96.50;;;;;;5081188;28;20247;-49
2021/11/11 11:47:32;;;;;;;27.20;24.33;;;10.50;96.80;;;;;;5057734;28;20657;-50
2021/11/11 11:49:58;;;;;;;21.75;17.50;;;10.60;97.70;;;;;;5075263;28;20232;-50
2021/11/11 11:52:27;;;;;;;21.90;16.98;;;10.80;97.80;;;;;;5076605;28;20220;-50
2021/11/11 11:55:05;;;;;;;19.70;17.60;;;10.70;97.90;;;;;;5077848;28;20740;-50
2021/11/11 12:00:27;;;;;;;19.55;16.55;;;10.70;98.10;;;;;;5076607;28;20212;-48
2021/11/11 12:38:41;;;;;;;20.48;17.48;;;10.50;99.50;;;;;;5087070;28;20283;-49
2021/11/11 12:41:11;;;;;;;17.00;15.20;;;10.50;99.70;;;;;;5084501;28;20208;-48
2021/11/11 12:43:37;;;;;;;21.50;16.15;;;10.40;99.90;;;;;;5078895;28;20173;-49
2021/11/11 12:46:04;;;;;;;17.20;15.30;;;10.10;99.90;;;;;;5088495;28;20184;-49
2021/11/11 12:48:31;;;;;;;19.90;16.33;;;10.50;99.90;;;;;;5089731;28;20192;-49
2021/11/11 12:51:00;;;;;;;19.60;15.75;;;10.10;99.90;;;;;;5082398;28;20223;-49
2021/11/11 12:53:44;;;;;;;18.05;15.80;;;10.10;99.90;;;;;;5082115;28;20211;-49
2021/11/11 12:56:17;;;;;;;20.27;16.13;;;10.00;99.90;;;;;;5089283;28;20746;-49
2021/11/11 12:58:44;;;;;;;20.65;18.45;;;10.10;99.90;;;;;;5086625;28;20196;-48
2021/11/11 13:01:18;;;;;;;19.05;16.83;;;10.10;99.90;;;;;;5088733;28;20676;-49
2021/11/11 13:03:44;;;;;;;18.85;16.60;;;9.90;99.90;;;;;;5082381;28;20181;-48
2021/11/11 13:06:10;;;;;;;18.60;16.60;;;9.90;99.90;;;;;;5089347;28;20196;-49
2021/11/11 13:08:48;;;;;;;18.33;16.43;;;10.10;99.90;;;;;;5083582;28;20172;-48
2021/11/11 13:11:14;;;;;;;19.83;17.17;;;9.90;99.90;;;;;;5079984;28;21004;-49
2021/11/11 13:13:40;;;;;;;20.15;17.20;;;10.10;99.90;;;;;;5078573;28;20205;-49
2021/11/11 13:16:16;;;;;;;18.33;16.30;;;9.50;99.90;;;;;;5088671;28;20257;-49
2021/11/11 13:18:44;;;;;;;21.45;17.75;;;10.00;99.90;;;;;;5085868;28;20430;-48
2021/11/11 13:21:48;;;;;;;20.83;17.55;;;10.00;99.90;;;;;;5079156;28;20217;-49
2021/11/11 15:14:46;;;;;;;26.48;20.80;;;8.60;99.90;;;;;;5003916;28;20245;-51
2021/11/11 16:01:22;;;;;;;28.25;21.85;;;7.60;99.90;;;;;;5066069;28;20585;-52
2021/11/11 16:22:48;;;;;;;34.10;23.65;;;6.30;99.90;;;;;;5085574;28;20193;-48
2021/11/11 16:25:26;;;;;;;29.38;23.77;;;6.80;99.90;;;;;;5084674;28;20593;-49
2021/11/11 16:27:52;;;;;;;34.60;25.70;;;6.40;99.90;;;;;;5081648;28;20181;-50
2021/11/11 16:30:22;;;;;;;30.23;24.30;;;6.60;99.90;;;;;;5082288;28;20241;-49
2021/11/11 16:32:49;;;;;;;36.30;26.60;;;6.30;99.90;;;;;;5075920;28;20445;-50
2021/11/11 16:35:17;;;;;;;33.22;25.15;;;6.30;99.90;;;;;;5084419;28;20178;-50
2021/11/11 16:37:44;;;;;;;35.55;25.65;;;6.30;99.90;;;;;;5083813;28;20623;-49
2021/11/11 16:40:13;;;;;;;30.73;24.77;;;6.20;99.90;;;;;;5083682;28;20571;-49